Alsace Manor, Pennsylvania
Current Conditions -  °F | °C
As of 10:54 PM on Friday 31 Oct 2014 (Local Time) from KRDG Reporting Station
Overcast Overcast  
Wind Chill: 49°   Ceiling: 4200
Heat Index: 49°   Visibility: 10mi
Dew Point: 36°   Wind: 3mph
Humidity: 61%   Direction: 30°NNE
Pressure: 29.86"   Gusts: NA
Location:  40.4008°N, 75.8851°W
Report Text: KRDG 010254Z 03003KT 10SM BKN042 OVC055 09/02 A2986 RMK AO2 SLP116 T00940022 58009
Loading
Personal Weather Stations






























Interactive Weather Map
Tropical Storm Tracking
New forecast layout! Learn more

10-Day Weather Forecast

Advertisements
Track Severe Weather on mobile